sensor_id;sensor_type;location;lat;lon;timestamp;P1;durP1;ratioP1;P2;durP2;ratioP2
21917;SDS011;11123;49.882;8.662;2022-10-23T00:01:43;15.25;;;3.28;;
21917;SDS011;11123;49.882;8.662;2022-10-23T00:04:13;5.05;;;1.90;;
21917;SDS011;11123;49.882;8.662;2022-10-23T00:06:43;7.53;;;1.90;;
21917;SDS011;11123;49.882;8.662;2022-10-23T00:09:13;14.80;;;2.15;;
21917;SDS011;11123;49.882;8.662;2022-10-23T00:11:43;8.38;;;1.65;;
21917;SDS011;11123;49.882;8.662;2022-10-23T00:14:13;5.65;;;1.55;;
21917;SDS011;11123;49.882;8.662;2022-10-23T00:16:44;5.90;;;2.08;;
21917;SDS011;11123;49.882;8.662;2022-10-23T00:19:12;7.65;;;2.08;;
21917;SDS011;11123;49.882;8.662;2022-10-23T00:21:40;6.28;;;1.55;;
21917;SDS011;11123;49.882;8.662;2022-10-23T00:24:09;6.03;;;2.00;;
21917;SDS011;11123;49.882;8.662;2022-10-23T00:26:37;12.70;;;2.47;;
21917;SDS011;11123;49.882;8.662;2022-10-23T00:29:06;11.15;;;1.85;;
21917;SDS011;11123;49.882;8.662;2022-10-23T00:31:36;9.18;;;2.10;;
21917;SDS011;11123;49.882;8.662;2022-10-23T00:34:06;9.02;;;1.92;;
21917;SDS011;11123;49.882;8.662;2022-10-23T00:36:35;9.30;;;1.70;;
21917;SDS011;11123;49.882;8.662;2022-10-23T00:39:04;7.85;;;2.15;;
21917;SDS011;11123;49.882;8.662;2022-10-23T00:41:33;7.47;;;2.03;;
21917;SDS011;11123;49.882;8.662;2022-10-23T00:44:06;9.85;;;2.28;;
21917;SDS011;11123;49.882;8.662;2022-10-23T00:46:36;13.93;;;2.22;;
21917;SDS011;11123;49.882;8.662;2022-10-23T00:49:07;8.50;;;2.03;;
21917;SDS011;11123;49.882;8.662;2022-10-23T00:51:42;5.85;;;1.60;;
21917;SDS011;11123;49.882;8.662;2022-10-23T00:54:13;4.78;;;1.73;;
21917;SDS011;11123;49.882;8.662;2022-10-23T00:56:50;5.85;;;1.73;;
21917;SDS011;11123;49.882;8.662;2022-10-23T00:59:21;9.20;;;1.83;;
21917;SDS011;11123;49.882;8.662;2022-10-23T01:01:55;6.50;;;1.85;;
21917;SDS011;11123;49.882;8.662;2022-10-23T01:04:26;6.05;;;1.95;;
21917;SDS011;11123;49.882;8.662;2022-10-23T01:06:57;7.72;;;1.90;;
21917;SDS011;11123;49.882;8.662;2022-10-23T01:09:33;6.68;;;2.63;;
21917;SDS011;11123;49.882;8.662;2022-10-23T01:12:07;8.23;;;2.92;;
21917;SDS011;11123;49.882;8.662;2022-10-23T01:14:42;6.10;;;2.03;;
21917;SDS011;11123;49.882;8.662;2022-10-23T01:17:18;5.80;;;1.60;;
21917;SDS011;11123;49.882;8.662;2022-10-23T01:19:58;9.80;;;2.00;;
21917;SDS011;11123;49.882;8.662;2022-10-23T01:22:45;7.93;;;1.83;;
21917;SDS011;11123;49.882;8.662;2022-10-23T01:25:41;8.00;;;1.80;;
21917;SDS011;11123;49.882;8.662;2022-10-23T01:28:24;6.57;;;1.60;;
21917;SDS011;11123;49.882;8.662;2022-10-23T01:30:56;6.88;;;1.48;;
21917;SDS011;11123;49.882;8.662;2022-10-23T01:33:34;6.85;;;1.95;;
21917;SDS011;11123;49.882;8.662;2022-10-23T01:36:10;6.18;;;1.65;;
21917;SDS011;11123;49.882;8.662;2022-10-23T01:38:43;7.50;;;1.50;;
21917;SDS011;11123;49.882;8.662;2022-10-23T01:41:23;7.75;;;1.65;;
21917;SDS011;11123;49.882;8.662;2022-10-23T01:44:00;11.45;;;1.95;;
21917;SDS011;11123;49.882;8.662;2022-10-23T01:46:34;5.13;;;1.88;;
21917;SDS011;11123;49.882;8.662;2022-10-23T01:49:07;14.55;;;1.83;;
21917;SDS011;11123;49.882;8.662;2022-10-23T01:51:40;10.68;;;2.03;;
21917;SDS011;11123;49.882;8.662;2022-10-23T01:54:11;6.65;;;1.60;;
21917;SDS011;11123;49.882;8.662;2022-10-23T01:56:42;6.22;;;1.73;;
21917;SDS011;11123;49.882;8.662;2022-10-23T01:59:20;7.07;;;1.80;;
21917;SDS011;11123;49.882;8.662;2022-10-23T02:01:51;6.32;;;1.80;;
21917;SDS011;11123;49.882;8.662;2022-10-23T02:04:24;5.97;;;1.70;;
21917;SDS011;11123;49.882;8.662;2022-10-23T02:06:56;8.18;;;1.90;;
21917;SDS011;11123;49.882;8.662;2022-10-23T02:09:25;5.88;;;1.90;;
21917;SDS011;11123;49.882;8.662;2022-10-23T02:11:59;12.05;;;3.00;;
21917;SDS011;11123;49.882;8.662;2022-10-23T02:14:42;4.35;;;1.52;;
21917;SDS011;11123;49.882;8.662;2022-10-23T02:17:20;5.32;;;1.85;;
21917;SDS011;11123;49.882;8.662;2022-10-23T02:19:55;8.82;;;2.15;;
21917;SDS011;11123;49.882;8.662;2022-10-23T02:22:32;5.70;;;1.80;;
21917;SDS011;11123;49.882;8.662;2022-10-23T02:25:07;11.18;;;1.80;;
21917;SDS011;11123;49.882;8.662;2022-10-23T02:27:41;10.82;;;2.35;;
21917;SDS011;11123;49.882;8.662;2022-10-23T02:30:13;5.03;;;1.90;;
21917;SDS011;11123;49.882;8.662;2022-10-23T02:32:54;9.48;;;2.17;;
21917;SDS011;11123;49.882;8.662;2022-10-23T02:35:35;6.30;;;2.25;;
21917;SDS011;11123;49.882;8.662;2022-10-23T02:38:28;9.07;;;2.35;;
21917;SDS011;11123;49.882;8.662;2022-10-23T02:41:11;5.45;;;2.00;;
21917;SDS011;11123;49.882;8.662;2022-10-23T02:43:54;9.32;;;2.28;;
21917;SDS011;11123;49.882;8.662;2022-10-23T02:46:33;8.07;;;2.10;;
21917;SDS011;11123;49.882;8.662;2022-10-23T02:49:10;7.60;;;2.40;;
21917;SDS011;11123;49.882;8.662;2022-10-23T02:51:45;10.98;;;2.50;;
21917;SDS011;11123;49.882;8.662;2022-10-23T02:54:30;8.98;;;2.95;;
21917;SDS011;11123;49.882;8.662;2022-10-23T02:57:10;8.63;;;2.90;;
21917;SDS011;11123;49.882;8.662;2022-10-23T02:59:46;7.10;;;2.55;;
21917;SDS011;11123;49.882;8.662;2022-10-23T03:02:27;8.05;;;2.40;;
21917;SDS011;11123;49.882;8.662;2022-10-23T03:05:00;7.72;;;2.33;;
21917;SDS011;11123;49.882;8.662;2022-10-23T03:07:33;5.82;;;2.63;;
21917;SDS011;11123;49.882;8.662;2022-10-23T03:10:05;7.10;;;2.20;;
21917;SDS011;11123;49.882;8.662;2022-10-23T03:12:35;8.23;;;2.40;;
21917;SDS011;11123;49.882;8.662;2022-10-23T03:15:05;10.15;;;2.45;;
21917;SDS011;11123;49.882;8.662;2022-10-23T03:17:35;8.23;;;2.70;;
21917;SDS011;11123;49.882;8.662;2022-10-23T03:20:04;11.70;;;2.70;;
21917;SDS011;11123;49.882;8.662;2022-10-23T03:22:34;9.23;;;2.42;;
21917;SDS011;11123;49.882;8.662;2022-10-23T03:25:05;8.43;;;2.28;;
21917;SDS011;11123;49.882;8.662;2022-10-23T03:27:37;9.88;;;2.85;;
21917;SDS011;11123;49.882;8.662;2022-10-23T03:30:09;6.30;;;2.22;;
21917;SDS011;11123;49.882;8.662;2022-10-23T03:32:41;6.45;;;2.30;;
21917;SDS011;11123;49.882;8.662;2022-10-23T03:35:11;6.18;;;2.45;;
21917;SDS011;11123;49.882;8.662;2022-10-23T03:37:46;6.43;;;2.47;;
21917;SDS011;11123;49.882;8.662;2022-10-23T03:40:15;6.05;;;2.67;;
21917;SDS011;11123;49.882;8.662;2022-10-23T03:42:43;5.75;;;2.60;;
21917;SDS011;11123;49.882;8.662;2022-10-23T03:45:16;10.88;;;2.80;;
21917;SDS011;11123;49.882;8.662;2022-10-23T03:47:48;8.77;;;2.45;;
21917;SDS011;11123;49.882;8.662;2022-10-23T03:50:17;4.63;;;2.40;;
21917;SDS011;11123;49.882;8.662;2022-10-23T03:52:46;11.38;;;2.70;;
21917;SDS011;11123;49.882;8.662;2022-10-23T03:55:14;7.80;;;2.72;;
21917;SDS011;11123;49.882;8.662;2022-10-23T03:57:43;9.43;;;2.95;;
21917;SDS011;11123;49.882;8.662;2022-10-23T04:00:12;5.50;;;2.75;;
21917;SDS011;11123;49.882;8.662;2022-10-23T04:02:45;6.50;;;2.50;;
21917;SDS011;11123;49.882;8.662;2022-10-23T04:05:16;7.68;;;2.75;;
21917;SDS011;11123;49.882;8.662;2022-10-23T04:07:52;7.95;;;2.75;;
21917;SDS011;11123;49.882;8.662;2022-10-23T04:10:21;6.57;;;2.67;;
21917;SDS011;11123;49.882;8.662;2022-10-23T04:12:49;7.32;;;2.50;;
21917;SDS011;11123;49.882;8.662;2022-10-23T04:15:17;6.53;;;2.33;;
21917;SDS011;11123;49.882;8.662;2022-10-23T04:17:46;8.48;;;2.30;;
21917;SDS011;11123;49.882;8.662;2022-10-23T04:20:16;10.00;;;2.90;;
21917;SDS011;11123;49.882;8.662;2022-10-23T04:22:44;5.72;;;2.20;;
21917;SDS011;11123;49.882;8.662;2022-10-23T04:25:12;9.25;;;2.08;;
21917;SDS011;11123;49.882;8.662;2022-10-23T04:27:44;8.35;;;2.30;;
21917;SDS011;11123;49.882;8.662;2022-10-23T04:30:12;5.53;;;2.35;;
21917;SDS011;11123;49.882;8.662;2022-10-23T04:32:42;8.13;;;2.10;;
21917;SDS011;11123;49.882;8.662;2022-10-23T04:35:10;4.72;;;1.90;;
21917;SDS011;11123;49.882;8.662;2022-10-23T04:37:40;9.48;;;2.00;;
21917;SDS011;11123;49.882;8.662;2022-10-23T04:40:08;8.60;;;2.75;;
21917;SDS011;11123;49.882;8.662;2022-10-23T04:42:37;7.38;;;1.95;;
21917;SDS011;11123;49.882;8.662;2022-10-23T04:45:06;8.95;;;2.17;;
21917;SDS011;11123;49.882;8.662;2022-10-23T04:47:35;5.03;;;1.85;;
21917;SDS011;11123;49.882;8.662;2022-10-23T04:50:03;8.88;;;2.33;;
21917;SDS011;11123;49.882;8.662;2022-10-23T04:52:54;4.78;;;1.98;;
21917;SDS011;11123;49.882;8.662;2022-10-23T04:55:37;4.30;;;2.22;;
21917;SDS011;11123;49.882;8.662;2022-10-23T04:58:13;8.05;;;2.72;;
21917;SDS011;11123;49.882;8.662;2022-10-23T05:00:42;8.73;;;2.33;;
21917;SDS011;11123;49.882;8.662;2022-10-23T05:03:15;9.45;;;2.63;;
21917;SDS011;11123;49.882;8.662;2022-10-23T05:05:44;10.95;;;2.13;;
21917;SDS011;11123;49.882;8.662;2022-10-23T05:08:32;7.93;;;2.78;;
21917;SDS011;11123;49.882;8.662;2022-10-23T05:11:28;6.10;;;2.90;;
21917;SDS011;11123;49.882;8.662;2022-10-23T05:13:56;5.20;;;2.45;;
21917;SDS011;11123;49.882;8.662;2022-10-23T05:16:31;6.13;;;2.08;;
21917;SDS011;11123;49.882;8.662;2022-10-23T05:19:04;5.93;;;2.00;;
21917;SDS011;11123;49.882;8.662;2022-10-23T05:21:37;4.72;;;2.03;;
21917;SDS011;11123;49.882;8.662;2022-10-23T05:24:09;7.57;;;2.33;;
21917;SDS011;11123;49.882;8.662;2022-10-23T05:26:38;5.50;;;2.22;;
21917;SDS011;11123;49.882;8.662;2022-10-23T05:29:06;9.88;;;2.50;;
21917;SDS011;11123;49.882;8.662;2022-10-23T05:31:35;8.35;;;2.55;;
21917;SDS011;11123;49.882;8.662;2022-10-23T05:34:09;4.55;;;2.53;;
21917;SDS011;11123;49.882;8.662;2022-10-23T05:36:42;7.57;;;2.33;;
21917;SDS011;11123;49.882;8.662;2022-10-23T05:39:13;8.25;;;2.60;;
21917;SDS011;11123;49.882;8.662;2022-10-23T05:41:42;8.00;;;2.35;;
21917;SDS011;11123;49.882;8.662;2022-10-23T05:44:17;10.40;;;2.50;;
21917;SDS011;11123;49.882;8.662;2022-10-23T05:47:12;9.15;;;2.42;;
21917;SDS011;11123;49.882;8.662;2022-10-23T05:49:56;13.88;;;2.60;;
21917;SDS011;11123;49.882;8.662;2022-10-23T05:52:45;5.57;;;2.13;;
21917;SDS011;11123;49.882;8.662;2022-10-23T05:55:28;6.32;;;2.35;;
21917;SDS011;11123;49.882;8.662;2022-10-23T05:58:15;10.20;;;2.40;;
21917;SDS011;11123;49.882;8.662;2022-10-23T06:01:09;15.73;;;2.85;;
21917;SDS011;11123;49.882;8.662;2022-10-23T06:03:54;7.95;;;2.55;;
21917;SDS011;11123;49.882;8.662;2022-10-23T06:06:29;5.20;;;2.22;;
21917;SDS011;11123;49.882;8.662;2022-10-23T06:08:58;8.68;;;2.60;;
21917;SDS011;11123;49.882;8.662;2022-10-23T06:11:27;8.68;;;3.08;;
21917;SDS011;11123;49.882;8.662;2022-10-23T06:14:02;9.30;;;3.13;;
21917;SDS011;11123;49.882;8.662;2022-10-23T06:16:30;7.90;;;2.97;;
21917;SDS011;11123;49.882;8.662;2022-10-23T06:18:58;9.35;;;3.33;;
21917;SDS011;11123;49.882;8.662;2022-10-23T06:21:27;6.72;;;3.42;;
21917;SDS011;11123;49.882;8.662;2022-10-23T06:23:55;9.95;;;4.32;;
21917;SDS011;11123;49.882;8.662;2022-10-23T06:26:38;5.72;;;3.25;;
21917;SDS011;11123;49.882;8.662;2022-10-23T06:29:09;7.05;;;3.08;;
21917;SDS011;11123;49.882;8.662;2022-10-23T06:31:40;5.32;;;2.45;;
21917;SDS011;11123;49.882;8.662;2022-10-23T06:34:10;7.03;;;2.70;;
21917;SDS011;11123;49.882;8.662;2022-10-23T06:36:39;5.60;;;2.42;;
21917;SDS011;11123;49.882;8.662;2022-10-23T06:39:28;5.97;;;2.50;;
21917;SDS011;11123;49.882;8.662;2022-10-23T06:42:19;7.30;;;2.40;;
21917;SDS011;11123;49.882;8.662;2022-10-23T06:44:50;7.20;;;2.63;;
21917;SDS011;11123;49.882;8.662;2022-10-23T06:47:39;7.88;;;2.55;;
21917;SDS011;11123;49.882;8.662;2022-10-23T06:50:37;7.07;;;2.60;;
21917;SDS011;11123;49.882;8.662;2022-10-23T06:53:10;7.53;;;2.80;;
21917;SDS011;11123;49.882;8.662;2022-10-23T06:55:45;4.57;;;2.45;;
21917;SDS011;11123;49.882;8.662;2022-10-23T06:58:20;8.70;;;2.88;;
21917;SDS011;11123;49.882;8.662;2022-10-23T07:01:02;6.13;;;2.70;;
21917;SDS011;11123;49.882;8.662;2022-10-23T07:03:32;7.85;;;2.60;;
21917;SDS011;11123;49.882;8.662;2022-10-23T07:06:04;6.75;;;2.45;;
21917;SDS011;11123;49.882;8.662;2022-10-23T07:08:34;7.53;;;2.70;;
21917;SDS011;11123;49.882;8.662;2022-10-23T07:11:14;6.47;;;2.42;;
21917;SDS011;11123;49.882;8.662;2022-10-23T07:13:48;4.70;;;2.30;;
21917;SDS011;11123;49.882;8.662;2022-10-23T07:16:20;5.30;;;2.78;;
21917;SDS011;11123;49.882;8.662;2022-10-23T07:18:52;6.85;;;2.33;;
21917;SDS011;11123;49.882;8.662;2022-10-23T07:21:27;6.32;;;2.45;;
21917;SDS011;11123;49.882;8.662;2022-10-23T07:24:15;9.10;;;2.40;;
21917;SDS011;11123;49.882;8.662;2022-10-23T07:26:44;10.07;;;2.22;;
21917;SDS011;11123;49.882;8.662;2022-10-23T07:29:14;5.82;;;2.55;;
21917;SDS011;11123;49.882;8.662;2022-10-23T07:31:42;11.18;;;2.55;;
21917;SDS011;11123;49.882;8.662;2022-10-23T07:34:34;4.85;;;2.47;;
21917;SDS011;11123;49.882;8.662;2022-10-23T07:37:21;4.82;;;2.33;;
21917;SDS011;11123;49.882;8.662;2022-10-23T07:39:49;5.93;;;2.33;;
21917;SDS011;11123;49.882;8.662;2022-10-23T07:42:18;5.35;;;2.30;;
21917;SDS011;11123;49.882;8.662;2022-10-23T07:44:49;4.32;;;2.15;;
21917;SDS011;11123;49.882;8.662;2022-10-23T07:47:18;5.43;;;2.28;;
21917;SDS011;11123;49.882;8.662;2022-10-23T07:49:49;7.72;;;2.00;;
21917;SDS011;11123;49.882;8.662;2022-10-23T07:52:18;5.55;;;2.25;;
21917;SDS011;11123;49.882;8.662;2022-10-23T07:55:08;4.32;;;2.20;;
21917;SDS011;11123;49.882;8.662;2022-10-23T07:57:42;6.57;;;1.98;;
21917;SDS011;11123;49.882;8.662;2022-10-23T08:00:23;6.80;;;2.13;;
21917;SDS011;11123;49.882;8.662;2022-10-23T08:03:00;5.32;;;2.00;;
21917;SDS011;11123;49.882;8.662;2022-10-23T08:05:31;6.55;;;1.70;;
21917;SDS011;11123;49.882;8.662;2022-10-23T08:08:01;6.35;;;1.85;;
21917;SDS011;11123;49.882;8.662;2022-10-23T08:10:29;5.57;;;2.00;;
21917;SDS011;11123;49.882;8.662;2022-10-23T08:12:58;6.88;;;2.17;;
21917;SDS011;11123;49.882;8.662;2022-10-23T08:15:48;6.15;;;2.15;;
21917;SDS011;11123;49.882;8.662;2022-10-23T08:18:41;6.03;;;1.65;;
21917;SDS011;11123;49.882;8.662;2022-10-23T08:21:11;3.78;;;1.65;;
21917;SDS011;11123;49.882;8.662;2022-10-23T08:23:39;4.35;;;1.73;;
21917;SDS011;11123;49.882;8.662;2022-10-23T08:26:08;5.93;;;1.75;;
21917;SDS011;11123;49.882;8.662;2022-10-23T08:28:36;3.95;;;1.80;;
21917;SDS011;11123;49.882;8.662;2022-10-23T08:31:07;6.88;;;1.98;;
21917;SDS011;11123;49.882;8.662;2022-10-23T08:33:37;6.20;;;1.50;;
21917;SDS011;11123;49.882;8.662;2022-10-23T08:36:12;9.98;;;1.60;;
21917;SDS011;11123;49.882;8.662;2022-10-23T08:38:43;4.45;;;1.80;;
21917;SDS011;11123;49.882;8.662;2022-10-23T08:41:22;6.07;;;1.55;;
21917;SDS011;11123;49.882;8.662;2022-10-23T08:44:00;4.15;;;1.67;;
21917;SDS011;11123;49.882;8.662;2022-10-23T08:46:40;7.18;;;1.48;;
21917;SDS011;11123;49.882;8.662;2022-10-23T08:49:23;3.65;;;1.40;;
21917;SDS011;11123;49.882;8.662;2022-10-23T08:52:13;3.88;;;1.70;;
21917;SDS011;11123;49.882;8.662;2022-10-23T08:54:52;5.38;;;1.70;;
21917;SDS011;11123;49.882;8.662;2022-10-23T08:57:34;4.10;;;1.35;;
21917;SDS011;11123;49.882;8.662;2022-10-23T09:00:11;6.40;;;1.40;;
21917;SDS011;11123;49.882;8.662;2022-10-23T09:02:44;5.93;;;1.55;;
21917;SDS011;11123;49.882;8.662;2022-10-23T09:05:15;4.75;;;1.40;;
21917;SDS011;11123;49.882;8.662;2022-10-23T09:07:49;3.45;;;1.40;;
21917;SDS011;11123;49.882;8.662;2022-10-23T09:10:33;2.85;;;1.10;;
21917;SDS011;11123;49.882;8.662;2022-10-23T09:13:20;3.15;;;1.35;;
21917;SDS011;11123;49.882;8.662;2022-10-23T09:16:10;3.35;;;1.35;;
21917;SDS011;11123;49.882;8.662;2022-10-23T09:18:47;5.63;;;1.48;;
21917;SDS011;11123;49.882;8.662;2022-10-23T09:21:17;5.53;;;1.65;;
21917;SDS011;11123;49.882;8.662;2022-10-23T09:23:47;4.05;;;1.45;;
21917;SDS011;11123;49.882;8.662;2022-10-23T09:26:16;8.55;;;2.25;;
21917;SDS011;11123;49.882;8.662;2022-10-23T09:28:45;4.50;;;2.05;;
21917;SDS011;11123;49.882;8.662;2022-10-23T09:31:15;7.55;;;2.20;;
21917;SDS011;11123;49.882;8.662;2022-10-23T09:33:56;5.50;;;1.70;;
21917;SDS011;11123;49.882;8.662;2022-10-23T09:36:26;3.22;;;1.60;;
21917;SDS011;11123;49.882;8.662;2022-10-23T09:38:56;4.30;;;1.70;;
21917;SDS011;11123;49.882;8.662;2022-10-23T09:41:26;6.97;;;1.92;;
21917;SDS011;11123;49.882;8.662;2022-10-23T09:44:00;5.90;;;2.00;;
21917;SDS011;11123;49.882;8.662;2022-10-23T09:46:38;5.38;;;1.80;;
21917;SDS011;11123;49.882;8.662;2022-10-23T09:49:15;5.32;;;1.80;;
21917;SDS011;11123;49.882;8.662;2022-10-23T09:51:53;8.02;;;2.88;;
21917;SDS011;11123;49.882;8.662;2022-10-23T09:54:27;9.82;;;3.17;;
21917;SDS011;11123;49.882;8.662;2022-10-23T09:56:58;13.52;;;3.28;;
21917;SDS011;11123;49.882;8.662;2022-10-23T09:59:32;11.00;;;2.95;;
21917;SDS011;11123;49.882;8.662;2022-10-23T10:02:01;14.10;;;2.80;;
21917;SDS011;11123;49.882;8.662;2022-10-23T10:04:51;10.65;;;3.13;;
21917;SDS011;11123;49.882;8.662;2022-10-23T10:07:20;13.68;;;3.85;;
21917;SDS011;11123;49.882;8.662;2022-10-23T10:09:51;13.40;;;3.70;;
21917;SDS011;11123;49.882;8.662;2022-10-23T10:12:28;9.98;;;3.25;;
21917;SDS011;11123;49.882;8.662;2022-10-23T10:15:10;9.90;;;3.40;;
21917;SDS011;11123;49.882;8.662;2022-10-23T10:17:48;15.50;;;3.65;;
21917;SDS011;11123;49.882;8.662;2022-10-23T10:20:32;11.82;;;3.17;;
21917;SDS011;11123;49.882;8.662;2022-10-23T10:23:24;10.82;;;3.90;;
21917;SDS011;11123;49.882;8.662;2022-10-23T10:26:02;12.68;;;3.65;;
21917;SDS011;11123;49.882;8.662;2022-10-23T10:28:46;17.10;;;4.03;;
21917;SDS011;11123;49.882;8.662;2022-10-23T10:31:29;12.27;;;3.58;;
21917;SDS011;11123;49.882;8.662;2022-10-23T10:34:05;9.55;;;3.22;;
21917;SDS011;11123;49.882;8.662;2022-10-23T10:36:43;7.88;;;2.80;;
21917;SDS011;11123;49.882;8.662;2022-10-23T10:39:22;6.18;;;1.98;;
21917;SDS011;11123;49.882;8.662;2022-10-23T10:41:59;6.45;;;1.80;;
21917;SDS011;11123;49.882;8.662;2022-10-23T10:44:44;8.20;;;1.77;;
21917;SDS011;11123;49.882;8.662;2022-10-23T10:47:30;4.85;;;1.50;;
21917;SDS011;11123;49.882;8.662;2022-10-23T10:50:09;3.78;;;1.50;;
21917;SDS011;11123;49.882;8.662;2022-10-23T10:53:07;5.75;;;1.70;;
21917;SDS011;11123;49.882;8.662;2022-10-23T10:55:43;5.85;;;1.35;;
21917;SDS011;11123;49.882;8.662;2022-10-23T10:58:17;6.00;;;1.45;;
21917;SDS011;11123;49.882;8.662;2022-10-23T11:00:51;5.43;;;1.90;;
21917;SDS011;11123;49.882;8.662;2022-10-23T11:03:27;6.63;;;1.60;;
21917;SDS011;11123;49.882;8.662;2022-10-23T11:06:08;4.60;;;1.33;;
21917;SDS011;11123;49.882;8.662;2022-10-23T11:08:43;4.97;;;1.67;;
21917;SDS011;11123;49.882;8.662;2022-10-23T11:11:34;2.85;;;1.50;;
21917;SDS011;11123;49.882;8.662;2022-10-23T11:14:13;5.72;;;1.20;;
21917;SDS011;11123;49.882;8.662;2022-10-23T11:16:44;4.32;;;1.38;;
21917;SDS011;11123;49.882;8.662;2022-10-23T11:19:19;4.00;;;1.15;;
21917;SDS011;11123;49.882;8.662;2022-10-23T11:21:53;6.78;;;1.60;;
21917;SDS011;11123;49.882;8.662;2022-10-23T11:27:33;4.72;;;1.10;;
21917;SDS011;11123;49.882;8.662;2022-10-23T11:30:16;7.10;;;1.20;;
21917;SDS011;11123;49.882;8.662;2022-10-23T11:33:12;2.85;;;1.20;;
21917;SDS011;11123;49.882;8.662;2022-10-23T11:36:10;4.85;;;1.13;;
21917;SDS011;11123;49.882;8.662;2022-10-23T11:38:43;4.88;;;0.95;;
21917;SDS011;11123;49.882;8.662;2022-10-23T11:41:18;6.55;;;1.20;;
21917;SDS011;11123;49.882;8.662;2022-10-23T11:43:55;6.72;;;1.15;;
21917;SDS011;11123;49.882;8.662;2022-10-23T11:46:30;8.38;;;1.20;;
21917;SDS011;11123;49.882;8.662;2022-10-23T11:49:01;7.22;;;1.10;;
21917;SDS011;11123;49.882;8.662;2022-10-23T11:51:32;3.70;;;1.13;;
21917;SDS011;11123;49.882;8.662;2022-10-23T11:54:05;5.13;;;1.02;;
21917;SDS011;11123;49.882;8.662;2022-10-23T11:56:55;6.60;;;0.98;;
21917;SDS011;11123;49.882;8.662;2022-10-23T11:59:41;4.63;;;1.33;;
21917;SDS011;11123;49.882;8.662;2022-10-23T12:02:21;3.58;;;1.00;;
21917;SDS011;11123;49.882;8.662;2022-10-23T12:04:54;2.35;;;0.82;;
21917;SDS011;11123;49.882;8.662;2022-10-23T12:07:23;4.57;;;0.82;;
21917;SDS011;11123;49.882;8.662;2022-10-23T12:09:55;2.35;;;1.13;;
21917;SDS011;11123;49.882;8.662;2022-10-23T12:12:28;3.88;;;0.90;;
21917;SDS011;11123;49.882;8.662;2022-10-23T12:15:08;3.38;;;0.88;;
21917;SDS011;11123;49.882;8.662;2022-10-23T12:17:46;3.08;;;0.75;;
21917;SDS011;11123;49.882;8.662;2022-10-23T12:20:24;5.50;;;0.95;;
21917;SDS011;11123;49.882;8.662;2022-10-23T12:23:05;2.95;;;0.90;;
21917;SDS011;11123;49.882;8.662;2022-10-23T12:25:52;6.13;;;0.98;;
21917;SDS011;11123;49.882;8.662;2022-10-23T12:28:33;3.40;;;1.10;;
21917;SDS011;11123;49.882;8.662;2022-10-23T12:31:13;5.18;;;1.00;;
21917;SDS011;11123;49.882;8.662;2022-10-23T12:33:53;6.15;;;1.10;;
21917;SDS011;11123;49.882;8.662;2022-10-23T12:39:26;4.03;;;0.80;;
21917;SDS011;11123;49.882;8.662;2022-10-23T12:41:56;7.47;;;1.02;;
21917;SDS011;11123;49.882;8.662;2022-10-23T12:44:25;2.55;;;1.13;;
21917;SDS011;11123;49.882;8.662;2022-10-23T12:46:57;3.15;;;1.10;;
21917;SDS011;11123;49.882;8.662;2022-10-23T12:49:28;7.90;;;1.10;;
21917;SDS011;11123;49.882;8.662;2022-10-23T12:51:59;6.32;;;1.33;;
21917;SDS011;11123;49.882;8.662;2022-10-23T12:54:29;3.13;;;1.00;;
21917;SDS011;11123;49.882;8.662;2022-10-23T12:56:58;5.10;;;1.35;;
21917;SDS011;11123;49.882;8.662;2022-10-23T12:59:31;2.58;;;1.20;;
21917;SDS011;11123;49.882;8.662;2022-10-23T13:02:16;2.20;;;0.90;;
21917;SDS011;11123;49.882;8.662;2022-10-23T13:04:51;5.65;;;1.02;;
21917;SDS011;11123;49.882;8.662;2022-10-23T13:07:22;3.30;;;1.10;;
21917;SDS011;11123;49.882;8.662;2022-10-23T13:09:55;3.63;;;0.90;;
21917;SDS011;11123;49.882;8.662;2022-10-23T13:12:28;4.97;;;1.48;;
21917;SDS011;11123;49.882;8.662;2022-10-23T13:15:00;7.65;;;1.17;;
21917;SDS011;11123;49.882;8.662;2022-10-23T13:17:42;3.85;;;1.40;;
21917;SDS011;11123;49.882;8.662;2022-10-23T13:20:19;4.28;;;1.60;;
21917;SDS011;11123;49.882;8.662;2022-10-23T13:22:51;1.95;;;0.80;;
21917;SDS011;11123;49.882;8.662;2022-10-23T13:25:28;5.70;;;0.93;;
21917;SDS011;11123;49.882;8.662;2022-10-23T13:28:02;3.30;;;0.80;;
21917;SDS011;11123;49.882;8.662;2022-10-23T13:30:56;2.75;;;0.80;;
21917;SDS011;11123;49.882;8.662;2022-10-23T13:33:51;3.10;;;0.98;;
21917;SDS011;11123;49.882;8.662;2022-10-23T13:36:33;6.32;;;1.15;;
21917;SDS011;11123;49.882;8.662;2022-10-23T13:39:10;2.22;;;1.00;;
21917;SDS011;11123;49.882;8.662;2022-10-23T13:41:41;4.10;;;1.42;;
21917;SDS011;11123;49.882;8.662;2022-10-23T13:44:11;3.08;;;0.95;;
21917;SDS011;11123;49.882;8.662;2022-10-23T13:46:42;2.55;;;1.00;;
21917;SDS011;11123;49.882;8.662;2022-10-23T13:49:12;3.35;;;1.10;;
21917;SDS011;11123;49.882;8.662;2022-10-23T13:51:41;3.65;;;1.08;;
21917;SDS011;11123;49.882;8.662;2022-10-23T13:54:13;4.18;;;1.13;;
21917;SDS011;11123;49.882;8.662;2022-10-23T13:56:43;3.22;;;1.30;;
21917;SDS011;11123;49.882;8.662;2022-10-23T13:59:12;5.72;;;1.20;;
21917;SDS011;11123;49.882;8.662;2022-10-23T14:01:41;3.97;;;1.33;;
21917;SDS011;11123;49.882;8.662;2022-10-23T14:04:12;3.20;;;1.30;;
21917;SDS011;11123;49.882;8.662;2022-10-23T14:06:42;3.13;;;1.00;;
21917;SDS011;11123;49.882;8.662;2022-10-23T14:09:11;4.18;;;1.50;;
21917;SDS011;11123;49.882;8.662;2022-10-23T14:11:41;4.95;;;1.38;;
21917;SDS011;11123;49.882;8.662;2022-10-23T14:14:10;3.70;;;1.38;;
21917;SDS011;11123;49.882;8.662;2022-10-23T14:16:39;3.22;;;1.45;;
21917;SDS011;11123;49.882;8.662;2022-10-23T14:19:07;3.55;;;1.30;;
21917;SDS011;11123;49.882;8.662;2022-10-23T14:21:37;5.43;;;1.45;;
21917;SDS011;11123;49.882;8.662;2022-10-23T14:24:06;3.75;;;1.38;;
21917;SDS011;11123;49.882;8.662;2022-10-23T14:26:35;4.72;;;1.52;;
21917;SDS011;11123;49.882;8.662;2022-10-23T14:29:03;2.95;;;1.45;;
21917;SDS011;11123;49.882;8.662;2022-10-23T14:31:41;2.45;;;1.23;;
21917;SDS011;11123;49.882;8.662;2022-10-23T14:34:10;2.50;;;1.23;;
21917;SDS011;11123;49.882;8.662;2022-10-23T14:36:40;3.88;;;1.40;;
21917;SDS011;11123;49.882;8.662;2022-10-23T14:39:16;5.07;;;1.35;;
21917;SDS011;11123;49.882;8.662;2022-10-23T14:41:44;2.78;;;1.30;;
21917;SDS011;11123;49.882;8.662;2022-10-23T14:44:12;5.85;;;1.58;;
21917;SDS011;11123;49.882;8.662;2022-10-23T14:46:41;3.72;;;1.50;;
21917;SDS011;11123;49.882;8.662;2022-10-23T14:49:09;3.70;;;1.45;;
21917;SDS011;11123;49.882;8.662;2022-10-23T14:51:37;7.15;;;2.17;;
21917;SDS011;11123;49.882;8.662;2022-10-23T14:54:07;11.82;;;6.72;;
21917;SDS011;11123;49.882;8.662;2022-10-23T14:56:36;5.15;;;3.22;;
21917;SDS011;11123;49.882;8.662;2022-10-23T14:59:06;6.40;;;3.58;;
21917;SDS011;11123;49.882;8.662;2022-10-23T15:01:37;5.15;;;2.78;;
21917;SDS011;11123;49.882;8.662;2022-10-23T15:04:11;4.45;;;2.17;;
21917;SDS011;11123;49.882;8.662;2022-10-23T15:06:40;4.63;;;1.80;;
21917;SDS011;11123;49.882;8.662;2022-10-23T15:09:11;4.68;;;1.98;;
21917;SDS011;11123;49.882;8.662;2022-10-23T15:11:39;3.95;;;1.90;;
21917;SDS011;11123;49.882;8.662;2022-10-23T15:14:08;4.20;;;1.83;;
21917;SDS011;11123;49.882;8.662;2022-10-23T15:16:36;5.30;;;1.88;;
21917;SDS011;11123;49.882;8.662;2022-10-23T15:19:07;9.95;;;2.20;;
21917;SDS011;11123;49.882;8.662;2022-10-23T15:21:42;7.82;;;2.05;;
21917;SDS011;11123;49.882;8.662;2022-10-23T15:24:12;5.65;;;2.40;;
21917;SDS011;11123;49.882;8.662;2022-10-23T15:26:41;4.80;;;2.17;;
21917;SDS011;11123;49.882;8.662;2022-10-23T15:29:10;6.63;;;2.83;;
21917;SDS011;11123;49.882;8.662;2022-10-23T15:31:44;5.82;;;2.45;;
21917;SDS011;11123;49.882;8.662;2022-10-23T15:34:16;6.47;;;2.42;;
21917;SDS011;11123;49.882;8.662;2022-10-23T15:36:46;7.75;;;2.40;;